sensor_id;sensor_type;location;lat;lon;timestamp;pressure;altitude;pressure_sealevel;temperature;humidity
14790;BME280;7486;51.010;10.366;2023-01-04T00:00:17;99253.91;;;3.05;73.62
14790;BME280;7486;51.010;10.366;2023-01-04T00:02:44;99272.63;;;2.91;74.35
14790;BME280;7486;51.010;10.366;2023-01-04T00:05:11;99268.69;;;3.15;73.96
14790;BME280;7486;51.010;10.366;2023-01-04T00:07:37;99260.06;;;3.25;73.94
14790;BME280;7486;51.010;10.366;2023-01-04T00:10:04;99214.38;;;2.98;72.69
14790;BME280;7486;51.010;10.366;2023-01-04T00:12:31;99258.31;;;3.35;72.71
14790;BME280;7486;51.010;10.366;2023-01-04T00:14:57;99247.81;;;3.25;72.69
14790;BME280;7486;51.010;10.366;2023-01-04T00:17:24;99237.84;;;3.19;73.17
14790;BME280;7486;51.010;10.366;2023-01-04T00:19:51;99241.91;;;2.93;74.59
14790;BME280;7486;51.010;10.366;2023-01-04T00:22:18;99249.66;;;3.04;74.46
14790;BME280;7486;51.010;10.366;2023-01-04T00:24:44;99244.19;;;3.16;73.78
14790;BME280;7486;51.010;10.366;2023-01-04T00:27:11;99237.56;;;3.12;73.62
14790;BME280;7486;51.010;10.366;2023-01-04T00:29:38;99234.19;;;2.91;74.75
14790;BME280;7486;51.010;10.366;2023-01-04T00:32:04;99220.72;;;2.96;75.13
14790;BME280;7486;51.010;10.366;2023-01-04T00:34:31;99215.47;;;2.96;75.21
14790;BME280;7486;51.010;10.366;2023-01-04T00:36:58;99212.59;;;2.99;74.94
14790;BME280;7486;51.010;10.366;2023-01-04T00:39:24;99216.19;;;2.98;75.48
14790;BME280;7486;51.010;10.366;2023-01-04T00:41:52;99213.81;;;2.95;75.84
14790;BME280;7486;51.010;10.366;2023-01-04T00:44:28;99215.56;;;2.85;75.69
14790;BME280;7486;51.010;10.366;2023-01-04T00:46:56;99199.16;;;2.73;76.41
14790;BME280;7486;51.010;10.366;2023-01-04T00:49:22;99207.13;;;2.72;76.77
14790;BME280;7486;51.010;10.366;2023-01-04T00:51:49;99203.31;;;2.85;76.11
14790;BME280;7486;51.010;10.366;2023-01-04T00:54:16;99201.41;;;2.87;75.80
14790;BME280;7486;51.010;10.366;2023-01-04T00:56:43;99196.91;;;2.59;77.47
14790;BME280;7486;51.010;10.366;2023-01-04T00:59:12;99196.38;;;2.65;77.53
14790;BME280;7486;51.010;10.366;2023-01-04T01:01:40;99205.72;;;2.68;77.20
14790;BME280;7486;51.010;10.366;2023-01-04T01:04:10;99192.81;;;2.76;77.39
14790;BME280;7486;51.010;10.366;2023-01-04T01:06:38;99187.47;;;2.77;76.79
14790;BME280;7486;51.010;10.366;2023-01-04T01:09:05;99143.97;;;2.36;77.54
14790;BME280;7486;51.010;10.366;2023-01-04T01:11:32;99177.06;;;2.56;78.34
14790;BME280;7486;51.010;10.366;2023-01-04T01:13:58;99189.47;;;2.64;77.94
14790;BME280;7486;51.010;10.366;2023-01-04T01:16:25;99184.38;;;2.62;77.94
14790;BME280;7486;51.010;10.366;2023-01-04T01:19:12;99160.13;;;2.60;77.16
14790;BME280;7486;51.010;10.366;2023-01-04T01:21:39;99144.28;;;2.52;77.75
14790;BME280;7486;51.010;10.366;2023-01-04T01:24:09;99151.81;;;2.36;77.96
14790;BME280;7486;51.010;10.366;2023-01-04T01:26:40;99173.28;;;2.70;77.70
14790;BME280;7486;51.010;10.366;2023-01-04T01:29:06;99164.91;;;2.86;76.93
14790;BME280;7486;51.010;10.366;2023-01-04T01:31:33;99161.78;;;2.52;77.46
14790;BME280;7486;51.010;10.366;2023-01-04T01:34:00;99148.69;;;2.52;77.67
14790;BME280;7486;51.010;10.366;2023-01-04T01:36:28;99154.28;;;2.78;76.63
14790;BME280;7486;51.010;10.366;2023-01-04T01:38:54;99166.38;;;2.69;77.19
14790;BME280;7486;51.010;10.366;2023-01-04T01:41:30;99145.13;;;2.53;77.95
14790;BME280;7486;51.010;10.366;2023-01-04T01:49:28;99147.88;;;2.51;78.43
14790;BME280;7486;51.010;10.366;2023-01-04T01:51:59;99143.47;;;2.52;78.76
14790;BME280;7486;51.010;10.366;2023-01-04T01:54:41;99134.50;;;2.45;78.95
14790;BME280;7486;51.010;10.366;2023-01-04T01:57:14;99073.56;;;2.14;78.40
14790;BME280;7486;51.010;10.366;2023-01-04T01:59:45;99089.56;;;2.30;77.74
14790;BME280;7486;51.010;10.366;2023-01-04T02:02:14;99077.38;;;2.10;78.59
14790;BME280;7486;51.010;10.366;2023-01-04T02:04:45;99122.91;;;2.38;78.62
14790;BME280;7486;51.010;10.366;2023-01-04T02:07:18;99105.53;;;2.27;79.33
14790;BME280;7486;51.010;10.366;2023-01-04T02:09:46;99109.19;;;2.15;79.59
14790;BME280;7486;51.010;10.366;2023-01-04T02:12:14;99110.63;;;2.29;79.35
14790;BME280;7486;51.010;10.366;2023-01-04T02:14:42;99101.56;;;2.33;79.16
14790;BME280;7486;51.010;10.366;2023-01-04T02:20:28;99094.13;;;2.28;79.46
14790;BME280;7486;51.010;10.366;2023-01-04T02:34:29;99069.84;;;2.17;79.78
14790;BME280;7486;51.010;10.366;2023-01-04T02:43:02;99013.75;;;2.30;78.81
14790;BME280;7486;51.010;10.366;2023-01-04T02:45:43;99027.16;;;2.46;77.97
14790;BME280;7486;51.010;10.366;2023-01-04T02:48:13;99015.53;;;2.30;78.53
14790;BME280;7486;51.010;10.366;2023-01-04T02:53:20;99033.75;;;2.41;78.67
14790;BME280;7486;51.010;10.366;2023-01-04T02:58:31;99027.56;;;2.42;78.60
14790;BME280;7486;51.010;10.366;2023-01-04T03:03:47;99029.78;;;2.46;78.42
14790;BME280;7486;51.010;10.366;2023-01-04T03:06:34;99008.72;;;2.48;78.22
14790;BME280;7486;51.010;10.366;2023-01-04T03:09:12;99006.13;;;2.67;77.00
14790;BME280;7486;51.010;10.366;2023-01-04T03:11:44;98993.72;;;2.59;77.29
14790;BME280;7486;51.010;10.366;2023-01-04T03:14:16;98981.47;;;2.70;76.75
14790;BME280;7486;51.010;10.366;2023-01-04T03:17:01;98976.38;;;2.78;76.94
14790;BME280;7486;51.010;10.366;2023-01-04T03:19:32;98959.56;;;2.71;76.56
14790;BME280;7486;51.010;10.366;2023-01-04T03:22:01;98961.25;;;2.52;77.09
14790;BME280;7486;51.010;10.366;2023-01-04T03:24:30;98954.91;;;2.36;78.45
14790;BME280;7486;51.010;10.366;2023-01-04T03:27:04;98911.69;;;2.22;77.85
14790;BME280;7486;51.010;10.366;2023-01-04T03:29:37;98967.25;;;2.34;78.84
14790;BME280;7486;51.010;10.366;2023-01-04T03:32:09;98933.03;;;2.46;78.63
14790;BME280;7486;51.010;10.366;2023-01-04T03:34:37;98929.31;;;2.39;78.14
14790;BME280;7486;51.010;10.366;2023-01-04T03:40:13;98940.44;;;2.60;77.09
14790;BME280;7486;51.010;10.366;2023-01-04T03:45:18;98938.38;;;2.26;78.22
14790;BME280;7486;51.010;10.366;2023-01-04T03:50:43;98950.22;;;2.49;77.44
14790;BME280;7486;51.010;10.366;2023-01-04T03:53:12;98935.38;;;2.49;77.61
14790;BME280;7486;51.010;10.366;2023-01-04T03:55:40;98914.31;;;2.32;77.37
14790;BME280;7486;51.010;10.366;2023-01-04T03:58:08;98922.97;;;2.42;76.97
14790;BME280;7486;51.010;10.366;2023-01-04T04:00:34;98919.13;;;2.55;76.72
14790;BME280;7486;51.010;10.366;2023-01-04T04:03:05;98906.31;;;2.62;76.32
14790;BME280;7486;51.010;10.366;2023-01-04T04:05:35;98918.56;;;2.42;76.67
14790;BME280;7486;51.010;10.366;2023-01-04T04:08:03;98878.53;;;2.32;76.54
14790;BME280;7486;51.010;10.366;2023-01-04T04:10:30;98908.69;;;2.36;77.13
14790;BME280;7486;51.010;10.366;2023-01-04T04:12:57;98900.00;;;2.45;77.33
14790;BME280;7486;51.010;10.366;2023-01-04T04:15:23;98843.72;;;2.22;76.19
14790;BME280;7486;51.010;10.366;2023-01-04T04:17:50;98876.06;;;2.50;75.69
14790;BME280;7486;51.010;10.366;2023-01-04T04:20:17;98873.25;;;2.71;75.32
14790;BME280;7486;51.010;10.366;2023-01-04T04:22:44;98871.75;;;2.68;75.29
14790;BME280;7486;51.010;10.366;2023-01-04T04:25:11;98870.94;;;2.77;74.99
14790;BME280;7486;51.010;10.366;2023-01-04T04:27:37;98873.69;;;2.66;75.23
14790;BME280;7486;51.010;10.366;2023-01-04T04:30:04;98869.28;;;2.67;75.18
14790;BME280;7486;51.010;10.366;2023-01-04T04:32:31;98854.16;;;2.70;74.76
14790;BME280;7486;51.010;10.366;2023-01-04T04:34:58;98865.16;;;2.74;74.63
14790;BME280;7486;51.010;10.366;2023-01-04T04:37:25;98866.25;;;2.61;74.78
14790;BME280;7486;51.010;10.366;2023-01-04T04:39:52;98869.97;;;2.69;74.89
14790;BME280;7486;51.010;10.366;2023-01-04T04:42:18;98861.53;;;2.84;75.00
14790;BME280;7486;51.010;10.366;2023-01-04T04:44:45;98862.06;;;2.88;74.42
14790;BME280;7486;51.010;10.366;2023-01-04T04:47:12;98869.69;;;2.72;75.20
14790;BME280;7486;51.010;10.366;2023-01-04T04:49:38;98870.34;;;2.83;75.27
14790;BME280;7486;51.010;10.366;2023-01-04T04:52:05;98871.41;;;3.00;75.33
14790;BME280;7486;51.010;10.366;2023-01-04T04:54:32;98858.53;;;2.79;76.27
14790;BME280;7486;51.010;10.366;2023-01-04T04:56:58;98865.00;;;2.65;77.61
14790;BME280;7486;51.010;10.366;2023-01-04T04:59:25;98860.19;;;2.71;77.62
14790;BME280;7486;51.010;10.366;2023-01-04T05:01:52;98850.84;;;2.58;77.95
14790;BME280;7486;51.010;10.366;2023-01-04T05:04:19;98851.38;;;2.72;78.01
14790;BME280;7486;51.010;10.366;2023-01-04T05:06:47;98853.16;;;2.81;77.32
14790;BME280;7486;51.010;10.366;2023-01-04T05:09:14;98846.94;;;2.82;77.32
14790;BME280;7486;51.010;10.366;2023-01-04T05:11:42;98844.56;;;2.98;77.01
14790;BME280;7486;51.010;10.366;2023-01-04T05:14:09;98835.53;;;2.83;76.73
14790;BME280;7486;51.010;10.366;2023-01-04T05:16:35;98831.91;;;2.93;77.06
14790;BME280;7486;51.010;10.366;2023-01-04T05:19:03;98833.19;;;2.80;78.27
14790;BME280;7486;51.010;10.366;2023-01-04T05:21:29;98828.41;;;2.65;79.40
14790;BME280;7486;51.010;10.366;2023-01-04T05:23:56;98808.56;;;2.73;79.51
14790;BME280;7486;51.010;10.366;2023-01-04T05:26:23;98773.22;;;2.59;79.25
14790;BME280;7486;51.010;10.366;2023-01-04T05:28:49;98801.81;;;2.80;79.76
14790;BME280;7486;51.010;10.366;2023-01-04T05:31:20;98778.31;;;2.51;80.91
14790;BME280;7486;51.010;10.366;2023-01-04T05:33:47;98790.56;;;2.50;81.57
14790;BME280;7486;51.010;10.366;2023-01-04T05:36:14;98786.97;;;2.61;81.76
14790;BME280;7486;51.010;10.366;2023-01-04T05:38:40;98794.44;;;2.56;82.23
14790;BME280;7486;51.010;10.366;2023-01-04T05:41:08;98786.13;;;2.60;82.73
14790;BME280;7486;51.010;10.366;2023-01-04T05:43:34;98773.53;;;2.46;83.68
14790;BME280;7486;51.010;10.366;2023-01-04T05:46:01;98782.38;;;2.36;85.10
14790;BME280;7486;51.010;10.366;2023-01-04T05:48:28;98763.94;;;2.28;85.71
14790;BME280;7486;51.010;10.366;2023-01-04T05:50:54;98758.28;;;2.32;85.67
14790;BME280;7486;51.010;10.366;2023-01-04T05:53:21;98740.16;;;2.21;85.85
14790;BME280;7486;51.010;10.366;2023-01-04T05:55:48;98755.69;;;2.32;86.15
14790;BME280;7486;51.010;10.366;2023-01-04T05:58:14;98753.16;;;2.40;86.02
14790;BME280;7486;51.010;10.366;2023-01-04T06:00:41;98755.25;;;2.27;87.27
14790;BME280;7486;51.010;10.366;2023-01-04T06:03:08;98757.03;;;2.27;87.25
14790;BME280;7486;51.010;10.366;2023-01-04T06:05:35;98757.75;;;2.29;87.14
14790;BME280;7486;51.010;10.366;2023-01-04T06:08:01;98763.78;;;2.39;87.66
14790;BME280;7486;51.010;10.366;2023-01-04T06:10:29;98759.78;;;2.35;87.67
14790;BME280;7486;51.010;10.366;2023-01-04T06:12:55;98762.63;;;2.51;86.96
14790;BME280;7486;51.010;10.366;2023-01-04T06:15:22;98772.53;;;2.57;87.32
14790;BME280;7486;51.010;10.366;2023-01-04T06:17:49;98745.47;;;2.39;87.50
14790;BME280;7486;51.010;10.366;2023-01-04T06:20:16;98758.09;;;2.53;88.18
14790;BME280;7486;51.010;10.366;2023-01-04T06:22:42;98739.66;;;2.54;87.85
14790;BME280;7486;51.010;10.366;2023-01-04T06:25:09;98756.66;;;2.68;87.30
14790;BME280;7486;51.010;10.366;2023-01-04T06:27:36;98745.91;;;2.71;87.35
14790;BME280;7486;51.010;10.366;2023-01-04T06:30:03;98741.09;;;2.76;87.29
14790;BME280;7486;51.010;10.366;2023-01-04T06:32:30;98748.66;;;2.79;86.75
14790;BME280;7486;51.010;10.366;2023-01-04T06:34:57;98718.69;;;2.64;87.54
14790;BME280;7486;51.010;10.366;2023-01-04T06:37:23;98702.88;;;2.65;87.14
14790;BME280;7486;51.010;10.366;2023-01-04T06:39:51;98693.94;;;2.58;87.70
14790;BME280;7486;51.010;10.366;2023-01-04T06:42:18;98709.06;;;2.64;88.54
14790;BME280;7486;51.010;10.366;2023-01-04T06:44:44;98704.91;;;2.72;88.07
14790;BME280;7486;51.010;10.366;2023-01-04T06:47:11;98720.75;;;2.60;88.32
14790;BME280;7486;51.010;10.366;2023-01-04T06:49:38;98716.59;;;2.68;88.46
14790;BME280;7486;51.010;10.366;2023-01-04T06:52:04;98705.00;;;2.80;87.97
14790;BME280;7486;51.010;10.366;2023-01-04T06:54:31;98702.44;;;2.70;87.98
14790;BME280;7486;51.010;10.366;2023-01-04T06:56:59;98716.59;;;2.68;88.35
14790;BME280;7486;51.010;10.366;2023-01-04T06:59:26;98707.69;;;2.60;89.48
14790;BME280;7486;51.010;10.366;2023-01-04T07:01:53;98681.28;;;2.63;88.52
14790;BME280;7486;51.010;10.366;2023-01-04T07:04:20;98671.06;;;2.60;89.39
14790;BME280;7486;51.010;10.366;2023-01-04T07:06:46;98704.13;;;2.61;89.71
14790;BME280;7486;51.010;10.366;2023-01-04T07:09:13;98705.31;;;2.77;89.28
14790;BME280;7486;51.010;10.366;2023-01-04T07:11:40;98708.44;;;2.80;88.72
14790;BME280;7486;51.010;10.366;2023-01-04T07:14:07;98711.59;;;2.84;89.35
14790;BME280;7486;51.010;10.366;2023-01-04T07:16:34;98707.44;;;3.08;87.64
14790;BME280;7486;51.010;10.366;2023-01-04T07:19:00;98678.66;;;2.91;88.29
14790;BME280;7486;51.010;10.366;2023-01-04T07:21:27;98688.69;;;3.13;88.19
14790;BME280;7486;51.010;10.366;2023-01-04T07:23:54;98692.28;;;3.12;87.26
14790;BME280;7486;51.010;10.366;2023-01-04T07:26:22;98635.00;;;2.64;88.18
14790;BME280;7486;51.010;10.366;2023-01-04T07:28:48;98663.75;;;2.91;88.42
14790;BME280;7486;51.010;10.366;2023-01-04T07:31:15;98667.97;;;2.75;88.56
14790;BME280;7486;51.010;10.366;2023-01-04T07:33:42;98672.53;;;3.00;88.00
14790;BME280;7486;51.010;10.366;2023-01-04T07:36:09;98657.38;;;3.03;87.99
14790;BME280;7486;51.010;10.366;2023-01-04T07:38:35;98667.41;;;3.08;87.70
14790;BME280;7486;51.010;10.366;2023-01-04T07:41:02;98661.09;;;3.18;87.99
14790;BME280;7486;51.010;10.366;2023-01-04T07:43:29;98654.94;;;3.37;85.71
14790;BME280;7486;51.010;10.366;2023-01-04T07:45:55;98654.53;;;3.14;87.01
14790;BME280;7486;51.010;10.366;2023-01-04T07:48:22;98641.06;;;3.09;87.19
14790;BME280;7486;51.010;10.366;2023-01-04T07:50:49;98642.69;;;2.93;87.97
14790;BME280;7486;51.010;10.366;2023-01-04T07:53:16;98623.63;;;2.83;88.96
14790;BME280;7486;51.010;10.366;2023-01-04T07:55:43;98644.00;;;2.79;89.18
14790;BME280;7486;51.010;10.366;2023-01-04T07:58:10;98591.59;;;2.71;89.30
14790;BME280;7486;51.010;10.366;2023-01-04T08:00:37;98648.47;;;3.14;88.30
14790;BME280;7486;51.010;10.366;2023-01-04T08:03:04;98637.84;;;3.15;87.93
14790;BME280;7486;51.010;10.366;2023-01-04T08:05:31;98609.97;;;3.06;87.82
14790;BME280;7486;51.010;10.366;2023-01-04T08:07:58;98605.34;;;3.18;87.21
14790;BME280;7486;51.010;10.366;2023-01-04T08:10:25;98626.00;;;3.39;87.10
14790;BME280;7486;51.010;10.366;2023-01-04T08:12:52;98607.03;;;3.09;87.28
14790;BME280;7486;51.010;10.366;2023-01-04T08:15:18;98634.19;;;3.26;87.22
14790;BME280;7486;51.010;10.366;2023-01-04T08:17:45;98623.00;;;3.34;86.78
14790;BME280;7486;51.010;10.366;2023-01-04T08:20:12;98622.31;;;3.14;87.46
14790;BME280;7486;51.010;10.366;2023-01-04T08:22:39;98635.97;;;3.26;87.16
14790;BME280;7486;51.010;10.366;2023-01-04T08:25:06;98628.50;;;3.13;87.96
14790;BME280;7486;51.010;10.366;2023-01-04T08:27:32;98632.31;;;3.18;87.20
14790;BME280;7486;51.010;10.366;2023-01-04T08:29:59;98645.88;;;3.14;87.65
14790;BME280;7486;51.010;10.366;2023-01-04T08:32:26;98628.91;;;3.18;88.31
14790;BME280;7486;51.010;10.366;2023-01-04T08:34:52;98639.59;;;3.25;87.46
14790;BME280;7486;51.010;10.366;2023-01-04T08:37:19;98641.78;;;3.29;87.08
14790;BME280;7486;51.010;10.366;2023-01-04T08:39:46;98628.94;;;3.26;87.74
14790;BME280;7486;51.010;10.366;2023-01-04T08:42:16;98626.88;;;3.30;87.35
14790;BME280;7486;51.010;10.366;2023-01-04T08:44:53;98638.06;;;3.22;87.81
14790;BME280;7486;51.010;10.366;2023-01-04T08:47:25;98634.34;;;3.07;88.56
14790;BME280;7486;51.010;10.366;2023-01-04T08:49:52;98629.34;;;3.13;88.66
14790;BME280;7486;51.010;10.366;2023-01-04T08:52:18;98628.09;;;3.35;87.65
14790;BME280;7486;51.010;10.366;2023-01-04T08:54:45;98613.66;;;3.31;87.12
14790;BME280;7486;51.010;10.366;2023-01-04T08:57:12;98573.19;;;2.90;87.61
14790;BME280;7486;51.010;10.366;2023-01-04T08:59:38;98606.94;;;3.29;87.44
14790;BME280;7486;51.010;10.366;2023-01-04T09:02:22;98605.59;;;3.42;87.09
14790;BME280;7486;51.010;10.366;2023-01-04T09:04:50;98556.50;;;3.09;86.04
14790;BME280;7486;51.010;10.366;2023-01-04T09:07:17;98612.44;;;3.43;86.20
14790;BME280;7486;51.010;10.366;2023-01-04T09:09:44;98626.88;;;3.47;85.70
14790;BME280;7486;51.010;10.366;2023-01-04T09:12:11;98618.44;;;3.18;87.30
14790;BME280;7486;51.010;10.366;2023-01-04T09:14:37;98625.41;;;3.45;86.54
14790;BME280;7486;51.010;10.366;2023-01-04T09:17:04;98608.78;;;3.36;86.12
14790;BME280;7486;51.010;10.366;2023-01-04T09:19:31;98613.41;;;3.25;87.30
14790;BME280;7486;51.010;10.366;2023-01-04T09:21:58;98608.84;;;3.27;87.39
14790;BME280;7486;51.010;10.366;2023-01-04T09:24:25;98594.56;;;3.21;87.78
14790;BME280;7486;51.010;10.366;2023-01-04T09:26:51;98600.25;;;3.16;88.19
14790;BME280;7486;51.010;10.366;2023-01-04T09:29:18;98580.94;;;3.18;88.23
14790;BME280;7486;51.010;10.366;2023-01-04T09:31:45;98588.63;;;3.19;88.79
14790;BME280;7486;51.010;10.366;2023-01-04T09:34:12;98548.81;;;2.90;89.42
14790;BME280;7486;51.010;10.366;2023-01-04T09:36:43;98583.19;;;3.12;89.79
14790;BME280;7486;51.010;10.366;2023-01-04T09:39:10;98555.00;;;3.24;89.08
14790;BME280;7486;51.010;10.366;2023-01-04T09:41:56;98574.19;;;3.15;89.36
14790;BME280;7486;51.010;10.366;2023-01-04T09:44:35;98570.53;;;3.26;88.88
14790;BME280;7486;51.010;10.366;2023-01-04T09:47:38;98550.34;;;3.36;88.35
14790;BME280;7486;51.010;10.366;2023-01-04T09:50:15;98571.59;;;3.33;88.57
14790;BME280;7486;51.010;10.366;2023-01-04T09:55:37;98561.72;;;3.44;88.55
14790;BME280;7486;51.010;10.366;2023-01-04T09:58:34;98557.56;;;3.34;90.04
14790;BME280;7486;51.010;10.366;2023-01-04T10:01:05;98569.88;;;3.41;89.96
14790;BME280;7486;51.010;10.366;2023-01-04T10:03:37;98543.38;;;3.27;89.72
14790;BME280;7486;51.010;10.366;2023-01-04T10:06:08;98554.22;;;3.49;88.86
14790;BME280;7486;51.010;10.366;2023-01-04T10:08:36;98569.88;;;3.41;89.84
14790;BME280;7486;51.010;10.366;2023-01-04T10:11:28;98578.47;;;3.51;90.23
14790;BME280;7486;51.010;10.366;2023-01-04T10:14:12;98521.34;;;3.29;89.11
14790;BME280;7486;51.010;10.366;2023-01-04T10:17:44;98571.69;;;3.41;90.04
14790;BME280;7486;51.010;10.366;2023-01-04T10:25:55;98555.66;;;3.26;91.47
14790;BME280;7486;51.010;10.366;2023-01-04T10:34:32;98552.81;;;3.55;90.01
14790;BME280;7486;51.010;10.366;2023-01-04T10:37:11;98546.59;;;3.56;90.51
14790;BME280;7486;51.010;10.366;2023-01-04T10:39:38;98514.28;;;3.73;88.76
14790;BME280;7486;51.010;10.366;2023-01-04T10:42:34;98528.28;;;3.90;88.64
14790;BME280;7486;51.010;10.366;2023-01-04T10:45:29;98512.47;;;3.74;88.99
14790;BME280;7486;51.010;10.366;2023-01-04T10:53:29;98486.19;;;3.57;91.02
14790;BME280;7486;51.010;10.366;2023-01-04T10:56:08;98478.34;;;3.57;90.94
14790;BME280;7486;51.010;10.366;2023-01-04T11:01:38;98473.28;;;3.64;90.39
14790;BME280;7486;51.010;10.366;2023-01-04T11:12:42;98468.81;;;3.82;90.82
14790;BME280;7486;51.010;10.366;2023-01-04T11:15:10;98450.28;;;3.84;90.64
14790;BME280;7486;51.010;10.366;2023-01-04T11:17:37;98417.81;;;3.69;90.35
14790;BME280;7486;51.010;10.366;2023-01-04T11:20:04;98444.03;;;3.69;91.23
14790;BME280;7486;51.010;10.366;2023-01-04T11:25:05;98438.81;;;3.77;90.84
14790;BME280;7486;51.010;10.366;2023-01-04T11:27:55;98433.91;;;3.82;91.34
14790;BME280;7486;51.010;10.366;2023-01-04T11:30:25;98426.09;;;3.90;91.09
14790;BME280;7486;51.010;10.366;2023-01-04T11:33:00;98413.81;;;3.90;91.58
14790;BME280;7486;51.010;10.366;2023-01-04T11:35:49;98413.66;;;3.92;91.66
14790;BME280;7486;51.010;10.366;2023-01-04T11:38:20;98415.69;;;4.14;90.35
14790;BME280;7486;51.010;10.366;2023-01-04T11:41:04;98431.88;;;4.09;90.61
14790;BME280;7486;51.010;10.366;2023-01-04T11:43:34;98399.41;;;3.86;91.62
14790;BME280;7486;51.010;10.366;2023-01-04T11:48:44;98419.47;;;4.20;90.55
14790;BME280;7486;51.010;10.366;2023-01-04T11:51:35;98413.22;;;4.12;90.55
14790;BME280;7486;51.010;10.366;2023-01-04T11:54:05;98413.06;;;4.14;91.08
14790;BME280;7486;51.010;10.366;2023-01-04T11:56:34;98400.28;;;4.19;90.52
14790;BME280;7486;51.010;10.366;2023-01-04T12:01:35;98386.53;;;4.17;89.86
14790;BME280;7486;51.010;10.366;2023-01-04T12:04:05;98380.63;;;4.07;91.07
14790;BME280;7486;51.010;10.366;2023-01-04T12:06:44;98391.13;;;4.23;90.00
14790;BME280;7486;51.010;10.366;2023-01-04T12:09:15;98376.03;;;4.25;90.98
14790;BME280;7486;51.010;10.366;2023-01-04T12:11:49;98361.94;;;4.26;90.38
14790;BME280;7486;51.010;10.366;2023-01-04T12:19:40;98344.44;;;4.27;90.25
14790;BME280;7486;51.010;10.366;2023-01-04T12:22:29;98355.91;;;4.50;89.58
14790;BME280;7486;51.010;10.366;2023-01-04T12:24:58;98355.06;;;4.49;90.12
14790;BME280;7486;51.010;10.366;2023-01-04T12:27:27;98347.56;;;4.38;89.57
14790;BME280;7486;51.010;10.366;2023-01-04T12:30:00;98344.44;;;4.35;90.16
14790;BME280;7486;51.010;10.366;2023-01-04T12:34:55;98342.63;;;4.35;90.50
14790;BME280;7486;51.010;10.366;2023-01-04T12:45:43;98345.75;;;4.47;90.57
14790;BME280;7486;51.010;10.366;2023-01-04T12:51:18;98343.09;;;4.39;91.25
14790;BME280;7486;51.010;10.366;2023-01-04T12:54:03;98336.75;;;4.41;91.90
14790;BME280;7486;51.010;10.366;2023-01-04T12:59:37;98340.66;;;4.45;92.84
14790;BME280;7486;51.010;10.366;2023-01-04T13:02:30;98333.44;;;4.07;93.55
14790;BME280;7486;51.010;10.366;2023-01-04T13:08:10;98321.66;;;4.27;94.00
14790;BME280;7486;51.010;10.366;2023-01-04T13:10:40;98314.44;;;4.37;93.27
14790;BME280;7486;51.010;10.366;2023-01-04T13:18:46;98295.56;;;4.50;93.05
14790;BME280;7486;51.010;10.366;2023-01-04T13:26:46;98276.72;;;4.54;91.65
14790;BME280;7486;51.010;10.366;2023-01-04T13:29:17;98276.69;;;4.62;91.97
14790;BME280;7486;51.010;10.366;2023-01-04T13:32:04;98271.09;;;4.82;90.66
14790;BME280;7486;51.010;10.366;2023-01-04T13:34:34;98280.91;;;4.88;90.62
14790;BME280;7486;51.010;10.366;2023-01-04T13:42:28;98270.88;;;4.99;90.23
14790;BME280;7486;51.010;10.366;2023-01-04T13:47:49;98263.66;;;4.93;90.15
14790;BME280;7486;51.010;10.366;2023-01-04T13:52:58;98257.72;;;5.15;89.16
14790;BME280;7486;51.010;10.366;2023-01-04T13:55:35;98256.25;;;5.05;89.15
14790;BME280;7486;51.010;10.366;2023-01-04T13:58:05;98258.38;;;5.09;89.08
14790;BME280;7486;51.010;10.366;2023-01-04T14:00:56;98262.31;;;5.05;88.86
14790;BME280;7486;51.010;10.366;2023-01-04T14:03:29;98249.56;;;4.94;89.32
14790;BME280;7486;51.010;10.366;2023-01-04T14:11:27;98258.53;;;5.16;88.51
14790;BME280;7486;51.010;10.366;2023-01-04T14:13:55;98264.44;;;5.10;88.29
14790;BME280;7486;51.010;10.366;2023-01-04T14:16:24;98249.19;;;5.05;88.21
14790;BME280;7486;51.010;10.366;2023-01-04T14:18:51;98241.31;;;5.05;88.78
14790;BME280;7486;51.010;10.366;2023-01-04T14:21:18;98243.59;;;5.08;87.53
14790;BME280;7486;51.010;10.366;2023-01-04T14:23:58;98252.94;;;5.11;86.98
14790;BME280;7486;51.010;10.366;2023-01-04T14:26:31;98253.28;;;5.16;87.37
14790;BME280;7486;51.010;10.366;2023-01-04T14:29:21;98258.84;;;5.13;87.65
14790;BME280;7486;51.010;10.366;2023-01-04T14:31:53;98265.53;;;5.32;86.69
14790;BME280;7486;51.010;10.366;2023-01-04T14:34:20;98255.28;;;5.45;85.63
14790;BME280;7486;51.010;10.366;2023-01-04T14:36:46;98252.03;;;5.35;86.04
14790;BME280;7486;51.010;10.366;2023-01-04T14:39:18;98258.47;;;5.32;86.33
14790;BME280;7486;51.010;10.366;2023-01-04T14:44:21;98248.88;;;5.16;87.36
14790;BME280;7486;51.010;10.366;2023-01-04T14:46:50;98236.84;;;5.22;87.84
14790;BME280;7486;51.010;10.366;2023-01-04T14:49:18;98241.38;;;5.36;86.63
14790;BME280;7486;51.010;10.366;2023-01-04T14:51:47;98231.94;;;5.19;87.41
14790;BME280;7486;51.010;10.366;2023-01-04T14:54:15;98243.09;;;5.21;87.71
14790;BME280;7486;51.010;10.366;2023-01-04T14:56:50;98243.94;;;5.13;88.33
14790;BME280;7486;51.010;10.366;2023-01-04T14:59:17;98243.09;;;5.13;88.29
14790;BME280;7486;51.010;10.366;2023-01-04T15:01:44;98235.38;;;5.11;88.60
14790;BME280;7486;51.010;10.366;2023-01-04T15:04:11;98238.19;;;5.18;88.64
14790;BME280;7486;51.010;10.366;2023-01-04T15:06:45;98236.72;;;5.07;89.39
14790;BME280;7486;51.010;10.366;2023-01-04T15:09:13;98222.06;;;5.21;88.69
14790;BME280;7486;51.010;10.366;2023-01-04T15:11:40;98211.75;;;5.20;88.29
14790;BME280;7486;51.010;10.366;2023-01-04T15:14:06;98239.22;;;5.40;87.96
14790;BME280;7486;51.010;10.366;2023-01-04T15:16:34;98231.56;;;5.30;88.00
14790;BME280;7486;51.010;10.366;2023-01-04T15:19:00;98230.56;;;5.31;87.78
14790;BME280;7486;51.010;10.366;2023-01-04T15:21:27;98234.91;;;5.16;89.47
14790;BME280;7486;51.010;10.366;2023-01-04T15:23:54;98215.50;;;5.25;89.79
14790;BME280;7486;51.010;10.366;2023-01-04T15:26:20;98216.84;;;5.13;90.64
14790;BME280;7486;51.010;10.366;2023-01-04T15:28:47;98186.41;;;4.96;91.37
14790;BME280;7486;51.010;10.366;2023-01-04T15:31:14;98191.56;;;5.12;91.23
14790;BME280;7486;51.010;10.366;2023-01-04T15:33:41;98162.44;;;4.99;91.07
14790;BME280;7486;51.010;10.366;2023-01-04T15:36:12;98201.59;;;5.16;91.52
14790;BME280;7486;51.010;10.366;2023-01-04T15:38:47;98194.34;;;5.18;91.39
14790;BME280;7486;51.010;10.366;2023-01-04T15:41:15;98200.25;;;5.21;91.31